sensor_id;sensor_type;location;lat;lon;timestamp;temperature;humidity
40996;DHT22;26723;57.478;12.066;2022-10-20T00:01:11;1.90;99.90
40996;DHT22;26723;57.478;12.066;2022-10-20T00:04:20;1.90;99.90
40996;DHT22;26723;57.478;12.066;2022-10-20T00:07:29;1.90;99.90
40996;DHT22;26723;57.478;12.066;2022-10-20T00:10:38;1.90;99.90
40996;DHT22;26723;57.478;12.066;2022-10-20T00:13:48;1.90;99.90
40996;DHT22;26723;57.478;12.066;2022-10-20T00:16:57;1.90;99.90
40996;DHT22;26723;57.478;12.066;2022-10-20T00:20:08;2.00;99.90
40996;DHT22;26723;57.478;12.066;2022-10-20T00:23:17;1.80;99.90
40996;DHT22;26723;57.478;12.066;2022-10-20T00:26:28;1.70;99.90
40996;DHT22;26723;57.478;12.066;2022-10-20T00:29:37;1.60;99.90
40996;DHT22;26723;57.478;12.066;2022-10-20T00:32:46;1.60;99.90
40996;DHT22;26723;57.478;12.066;2022-10-20T00:35:57;1.60;99.90
40996;DHT22;26723;57.478;12.066;2022-10-20T00:39:05;1.50;99.90
40996;DHT22;26723;57.478;12.066;2022-10-20T00:42:16;1.60;99.90
40996;DHT22;26723;57.478;12.066;2022-10-20T00:45:25;1.60;99.90
40996;DHT22;26723;57.478;12.066;2022-10-20T00:48:34;1.50;99.90
40996;DHT22;26723;57.478;12.066;2022-10-20T00:51:43;1.40;99.90
40996;DHT22;26723;57.478;12.066;2022-10-20T00:54:52;1.40;99.90
40996;DHT22;26723;57.478;12.066;2022-10-20T00:58:02;1.60;99.90
40996;DHT22;26723;57.478;12.066;2022-10-20T01:01:12;1.60;99.90
40996;DHT22;26723;57.478;12.066;2022-10-20T01:04:21;1.60;99.90
40996;DHT22;26723;57.478;12.066;2022-10-20T01:07:30;1.60;99.90
40996;DHT22;26723;57.478;12.066;2022-10-20T01:10:41;1.50;99.90
40996;DHT22;26723;57.478;12.066;2022-10-20T01:14:13;1.50;99.90
40996;DHT22;26723;57.478;12.066;2022-10-20T01:17:30;1.40;99.90
40996;DHT22;26723;57.478;12.066;2022-10-20T01:21:12;1.60;99.90
40996;DHT22;26723;57.478;12.066;2022-10-20T01:24:44;1.70;99.90
40996;DHT22;26723;57.478;12.066;2022-10-20T01:27:58;1.60;99.90
40996;DHT22;26723;57.478;12.066;2022-10-20T01:31:13;1.60;99.90
40996;DHT22;26723;57.478;12.066;2022-10-20T01:34:29;1.50;99.90
40996;DHT22;26723;57.478;12.066;2022-10-20T01:37:41;1.40;99.90
40996;DHT22;26723;57.478;12.066;2022-10-20T01:40:59;1.60;99.90
40996;DHT22;26723;57.478;12.066;2022-10-20T01:44:11;1.50;99.90
40996;DHT22;26723;57.478;12.066;2022-10-20T01:47:24;1.50;99.90
40996;DHT22;26723;57.478;12.066;2022-10-20T01:50:34;1.40;99.90
40996;DHT22;26723;57.478;12.066;2022-10-20T01:53:43;1.40;99.90
40996;DHT22;26723;57.478;12.066;2022-10-20T01:57:05;1.40;99.90
40996;DHT22;26723;57.478;12.066;2022-10-20T02:00:20;1.30;99.90
40996;DHT22;26723;57.478;12.066;2022-10-20T02:03:36;1.10;99.90
40996;DHT22;26723;57.478;12.066;2022-10-20T02:06:55;1.10;99.90
40996;DHT22;26723;57.478;12.066;2022-10-20T02:10:10;1.10;99.90
40996;DHT22;26723;57.478;12.066;2022-10-20T02:13:20;1.30;99.90
40996;DHT22;26723;57.478;12.066;2022-10-20T02:16:33;1.40;99.90
40996;DHT22;26723;57.478;12.066;2022-10-20T02:19:44;1.40;99.90
40996;DHT22;26723;57.478;12.066;2022-10-20T02:22:53;1.50;99.90
40996;DHT22;26723;57.478;12.066;2022-10-20T02:26:05;1.50;99.90
40996;DHT22;26723;57.478;12.066;2022-10-20T02:29:24;1.40;99.90
40996;DHT22;26723;57.478;12.066;2022-10-20T02:32:37;1.30;99.90
40996;DHT22;26723;57.478;12.066;2022-10-20T02:35:49;1.40;99.90
40996;DHT22;26723;57.478;12.066;2022-10-20T02:38:58;1.40;99.90
40996;DHT22;26723;57.478;12.066;2022-10-20T02:42:06;1.40;99.90
40996;DHT22;26723;57.478;12.066;2022-10-20T02:45:15;1.30;99.90
40996;DHT22;26723;57.478;12.066;2022-10-20T02:48:25;1.30;99.90
40996;DHT22;26723;57.478;12.066;2022-10-20T02:51:33;1.30;99.90
40996;DHT22;26723;57.478;12.066;2022-10-20T02:54:42;1.40;99.90
40996;DHT22;26723;57.478;12.066;2022-10-20T02:57:50;1.30;99.90
40996;DHT22;26723;57.478;12.066;2022-10-20T03:01:00;1.30;99.90
40996;DHT22;26723;57.478;12.066;2022-10-20T03:04:10;1.30;99.90
40996;DHT22;26723;57.478;12.066;2022-10-20T03:07:19;1.30;99.90
40996;DHT22;26723;57.478;12.066;2022-10-20T03:10:27;1.20;99.90
40996;DHT22;26723;57.478;12.066;2022-10-20T03:13:35;1.30;99.90
40996;DHT22;26723;57.478;12.066;2022-10-20T03:16:44;1.30;99.90
40996;DHT22;26723;57.478;12.066;2022-10-20T03:19:53;1.30;99.90
40996;DHT22;26723;57.478;12.066;2022-10-20T03:23:02;1.30;99.90
40996;DHT22;26723;57.478;12.066;2022-10-20T03:26:11;1.30;99.90
40996;DHT22;26723;57.478;12.066;2022-10-20T03:29:19;1.30;99.90
40996;DHT22;26723;57.478;12.066;2022-10-20T03:32:28;1.10;99.90
40996;DHT22;26723;57.478;12.066;2022-10-20T03:35:38;1.10;99.90
40996;DHT22;26723;57.478;12.066;2022-10-20T03:38:46;1.00;99.90
40996;DHT22;26723;57.478;12.066;2022-10-20T03:41:54;1.10;99.90
40996;DHT22;26723;57.478;12.066;2022-10-20T03:45:05;1.20;99.90
40996;DHT22;26723;57.478;12.066;2022-10-20T03:48:13;1.20;99.90
40996;DHT22;26723;57.478;12.066;2022-10-20T03:51:23;1.20;99.90
40996;DHT22;26723;57.478;12.066;2022-10-20T03:54:31;1.20;99.90
40996;DHT22;26723;57.478;12.066;2022-10-20T03:57:42;1.30;99.90
40996;DHT22;26723;57.478;12.066;2022-10-20T04:00:50;1.20;99.90
40996;DHT22;26723;57.478;12.066;2022-10-20T04:03:59;1.10;99.90
40996;DHT22;26723;57.478;12.066;2022-10-20T04:07:09;1.20;99.90
40996;DHT22;26723;57.478;12.066;2022-10-20T04:10:17;1.30;99.90
40996;DHT22;26723;57.478;12.066;2022-10-20T04:13:25;1.40;99.90
40996;DHT22;26723;57.478;12.066;2022-10-20T04:16:34;1.40;99.90
40996;DHT22;26723;57.478;12.066;2022-10-20T04:19:45;1.40;99.90
40996;DHT22;26723;57.478;12.066;2022-10-20T04:22:55;1.40;99.90
40996;DHT22;26723;57.478;12.066;2022-10-20T04:26:09;1.40;99.90
40996;DHT22;26723;57.478;12.066;2022-10-20T04:29:18;1.30;99.90
40996;DHT22;26723;57.478;12.066;2022-10-20T04:32:27;1.30;99.90
40996;DHT22;26723;57.478;12.066;2022-10-20T04:35:35;1.30;99.90
40996;DHT22;26723;57.478;12.066;2022-10-20T04:38:45;1.30;99.90
40996;DHT22;26723;57.478;12.066;2022-10-20T04:41:53;1.30;99.90
40996;DHT22;26723;57.478;12.066;2022-10-20T04:45:02;1.30;99.90
40996;DHT22;26723;57.478;12.066;2022-10-20T04:48:10;1.20;99.90
40996;DHT22;26723;57.478;12.066;2022-10-20T04:51:18;1.10;99.90
40996;DHT22;26723;57.478;12.066;2022-10-20T04:54:29;1.10;99.90
40996;DHT22;26723;57.478;12.066;2022-10-20T04:57:37;1.30;99.90
40996;DHT22;26723;57.478;12.066;2022-10-20T05:00:46;1.30;99.90
40996;DHT22;26723;57.478;12.066;2022-10-20T05:03:54;1.30;99.90
40996;DHT22;26723;57.478;12.066;2022-10-20T05:07:02;1.30;99.90
40996;DHT22;26723;57.478;12.066;2022-10-20T05:10:12;1.20;99.90
40996;DHT22;26723;57.478;12.066;2022-10-20T05:13:20;1.30;99.90
40996;DHT22;26723;57.478;12.066;2022-10-20T05:16:29;1.10;99.90
40996;DHT22;26723;57.478;12.066;2022-10-20T05:19:37;1.10;99.90
40996;DHT22;26723;57.478;12.066;2022-10-20T05:22:45;1.20;99.90
40996;DHT22;26723;57.478;12.066;2022-10-20T05:25:55;1.30;99.90
40996;DHT22;26723;57.478;12.066;2022-10-20T05:29:05;1.20;99.90
40996;DHT22;26723;57.478;12.066;2022-10-20T05:32:14;1.20;99.90
40996;DHT22;26723;57.478;12.066;2022-10-20T05:35:22;1.30;99.90
40996;DHT22;26723;57.478;12.066;2022-10-20T05:38:30;1.20;99.90
40996;DHT22;26723;57.478;12.066;2022-10-20T05:41:40;1.30;99.90
40996;DHT22;26723;57.478;12.066;2022-10-20T05:44:49;1.30;99.90
40996;DHT22;26723;57.478;12.066;2022-10-20T05:47:57;1.40;99.90
40996;DHT22;26723;57.478;12.066;2022-10-20T05:51:07;1.50;99.90
40996;DHT22;26723;57.478;12.066;2022-10-20T05:54:20;1.40;99.90
40996;DHT22;26723;57.478;12.066;2022-10-20T05:57:30;1.40;99.90
40996;DHT22;26723;57.478;12.066;2022-10-20T06:00:38;1.40;99.90
40996;DHT22;26723;57.478;12.066;2022-10-20T06:03:58;1.40;99.90
40996;DHT22;26723;57.478;12.066;2022-10-20T06:07:07;1.40;99.90
40996;DHT22;26723;57.478;12.066;2022-10-20T06:10:16;1.40;99.90
40996;DHT22;26723;57.478;12.066;2022-10-20T06:13:25;1.50;99.90
40996;DHT22;26723;57.478;12.066;2022-10-20T06:16:34;1.50;99.90
40996;DHT22;26723;57.478;12.066;2022-10-20T06:19:43;1.60;99.90
40996;DHT22;26723;57.478;12.066;2022-10-20T06:22:51;1.60;99.90
40996;DHT22;26723;57.478;12.066;2022-10-20T06:26:04;1.60;99.90
40996;DHT22;26723;57.478;12.066;2022-10-20T06:29:17;1.80;99.90
40996;DHT22;26723;57.478;12.066;2022-10-20T06:32:25;1.90;99.90
40996;DHT22;26723;57.478;12.066;2022-10-20T06:35:33;2.00;99.90
40996;DHT22;26723;57.478;12.066;2022-10-20T06:38:43;2.00;99.90
40996;DHT22;26723;57.478;12.066;2022-10-20T06:41:52;2.20;99.90
40996;DHT22;26723;57.478;12.066;2022-10-20T06:45:03;2.30;99.90
40996;DHT22;26723;57.478;12.066;2022-10-20T06:48:11;2.40;99.90
40996;DHT22;26723;57.478;12.066;2022-10-20T06:51:20;2.50;99.90
40996;DHT22;26723;57.478;12.066;2022-10-20T06:54:29;2.60;99.90
40996;DHT22;26723;57.478;12.066;2022-10-20T06:57:37;2.70;99.90
40996;DHT22;26723;57.478;12.066;2022-10-20T07:00:47;2.90;99.90
40996;DHT22;26723;57.478;12.066;2022-10-20T07:03:56;3.00;99.90
40996;DHT22;26723;57.478;12.066;2022-10-20T07:07:05;3.10;99.90
40996;DHT22;26723;57.478;12.066;2022-10-20T07:10:13;3.30;99.90
40996;DHT22;26723;57.478;12.066;2022-10-20T07:13:22;3.40;99.90
40996;DHT22;26723;57.478;12.066;2022-10-20T07:16:33;3.60;99.90
40996;DHT22;26723;57.478;12.066;2022-10-20T07:19:41;3.70;99.90
40996;DHT22;26723;57.478;12.066;2022-10-20T07:22:50;4.00;99.90
40996;DHT22;26723;57.478;12.066;2022-10-20T07:26:01;4.20;99.90
40996;DHT22;26723;57.478;12.066;2022-10-20T07:29:11;4.50;99.90
40996;DHT22;26723;57.478;12.066;2022-10-20T07:32:22;4.90;99.90
40996;DHT22;26723;57.478;12.066;2022-10-20T07:35:31;5.10;99.90
40996;DHT22;26723;57.478;12.066;2022-10-20T07:38:39;5.90;99.90
40996;DHT22;26723;57.478;12.066;2022-10-20T07:41:48;7.00;99.90
40996;DHT22;26723;57.478;12.066;2022-10-20T07:44:56;7.90;99.90
40996;DHT22;26723;57.478;12.066;2022-10-20T07:48:07;10.20;99.90
40996;DHT22;26723;57.478;12.066;2022-10-20T07:51:22;12.90;99.90
40996;DHT22;26723;57.478;12.066;2022-10-20T07:54:31;15.00;99.90
40996;DHT22;26723;57.478;12.066;2022-10-20T07:57:40;16.30;99.90
40996;DHT22;26723;57.478;12.066;2022-10-20T08:00:48;17.30;99.90
40996;DHT22;26723;57.478;12.066;2022-10-20T08:03:58;18.10;99.90
40996;DHT22;26723;57.478;12.066;2022-10-20T08:07:06;18.80;99.90
40996;DHT22;26723;57.478;12.066;2022-10-20T08:10:14;19.00;99.90
40996;DHT22;26723;57.478;12.066;2022-10-20T08:13:23;19.10;99.90
40996;DHT22;26723;57.478;12.066;2022-10-20T08:16:31;19.70;99.90
40996;DHT22;26723;57.478;12.066;2022-10-20T08:19:52;20.10;99.90
40996;DHT22;26723;57.478;12.066;2022-10-20T08:23:04;20.50;99.90
40996;DHT22;26723;57.478;12.066;2022-10-20T08:26:16;20.90;99.90
40996;DHT22;26723;57.478;12.066;2022-10-20T08:29:25;20.80;99.90
40996;DHT22;26723;57.478;12.066;2022-10-20T08:32:33;20.80;99.90
40996;DHT22;26723;57.478;12.066;2022-10-20T08:35:43;21.20;99.90
40996;DHT22;26723;57.478;12.066;2022-10-20T08:38:51;21.50;99.90
40996;DHT22;26723;57.478;12.066;2022-10-20T08:42:02;21.50;99.90
40996;DHT22;26723;57.478;12.066;2022-10-20T08:45:18;21.70;99.90
40996;DHT22;26723;57.478;12.066;2022-10-20T08:48:30;21.80;99.90
40996;DHT22;26723;57.478;12.066;2022-10-20T08:51:41;21.80;99.90
40996;DHT22;26723;57.478;12.066;2022-10-20T08:54:53;22.20;99.90
40996;DHT22;26723;57.478;12.066;2022-10-20T08:58:04;22.10;99.90
40996;DHT22;26723;57.478;12.066;2022-10-20T09:01:18;22.10;99.90
40996;DHT22;26723;57.478;12.066;2022-10-20T09:04:32;22.00;99.90
40996;DHT22;26723;57.478;12.066;2022-10-20T09:07:43;22.00;99.90
40996;DHT22;26723;57.478;12.066;2022-10-20T09:10:54;21.90;99.90
40996;DHT22;26723;57.478;12.066;2022-10-20T09:14:03;20.60;99.90
40996;DHT22;26723;57.478;12.066;2022-10-20T09:17:13;19.30;99.90
40996;DHT22;26723;57.478;12.066;2022-10-20T09:20:26;19.10;99.90
40996;DHT22;26723;57.478;12.066;2022-10-20T09:23:40;19.00;99.90
40996;DHT22;26723;57.478;12.066;2022-10-20T09:26:50;18.90;99.90
40996;DHT22;26723;57.478;12.066;2022-10-20T09:30:17;18.90;99.90
40996;DHT22;26723;57.478;12.066;2022-10-20T09:33:30;18.50;99.90
40996;DHT22;26723;57.478;12.066;2022-10-20T09:36:40;18.10;99.90
40996;DHT22;26723;57.478;12.066;2022-10-20T09:39:53;17.70;99.90
40996;DHT22;26723;57.478;12.066;2022-10-20T09:43:09;17.70;99.90
40996;DHT22;26723;57.478;12.066;2022-10-20T09:46:20;16.70;99.90
40996;DHT22;26723;57.478;12.066;2022-10-20T09:49:33;16.60;99.90
40996;DHT22;26723;57.478;12.066;2022-10-20T09:52:44;15.90;99.90
40996;DHT22;26723;57.478;12.066;2022-10-20T09:55:55;16.10;99.90
40996;DHT22;26723;57.478;12.066;2022-10-20T09:59:07;15.80;99.90
40996;DHT22;26723;57.478;12.066;2022-10-20T10:02:28;15.40;99.90
40996;DHT22;26723;57.478;12.066;2022-10-20T10:05:37;15.10;99.90
40996;DHT22;26723;57.478;12.066;2022-10-20T10:08:45;15.30;99.90
40996;DHT22;26723;57.478;12.066;2022-10-20T10:12:01;15.70;99.90
40996;DHT22;26723;57.478;12.066;2022-10-20T10:15:28;15.80;99.90
40996;DHT22;26723;57.478;12.066;2022-10-20T10:18:37;15.70;99.90
40996;DHT22;26723;57.478;12.066;2022-10-20T10:21:51;15.70;99.90
40996;DHT22;26723;57.478;12.066;2022-10-20T10:25:00;15.20;99.90
40996;DHT22;26723;57.478;12.066;2022-10-20T10:28:21;14.50;99.90
40996;DHT22;26723;57.478;12.066;2022-10-20T10:31:34;14.70;99.90
40996;DHT22;26723;57.478;12.066;2022-10-20T10:35:08;14.60;99.90
40996;DHT22;26723;57.478;12.066;2022-10-20T10:38:19;14.20;99.90
40996;DHT22;26723;57.478;12.066;2022-10-20T10:41:50;14.60;99.90
40996;DHT22;26723;57.478;12.066;2022-10-20T10:45:09;14.50;99.90
40996;DHT22;26723;57.478;12.066;2022-10-20T10:48:37;14.30;99.90
40996;DHT22;26723;57.478;12.066;2022-10-20T10:51:57;14.00;99.90
40996;DHT22;26723;57.478;12.066;2022-10-20T10:55:16;14.00;99.90
40996;DHT22;26723;57.478;12.066;2022-10-20T10:58:55;14.30;99.90
40996;DHT22;26723;57.478;12.066;2022-10-20T11:02:45;14.30;99.90
40996;DHT22;26723;57.478;12.066;2022-10-20T11:06:08;14.10;99.90
40996;DHT22;26723;57.478;12.066;2022-10-20T11:09:28;13.90;99.90
40996;DHT22;26723;57.478;12.066;2022-10-20T11:16:27;14.00;99.90
40996;DHT22;26723;57.478;12.066;2022-10-20T11:19:52;14.10;99.90
40996;DHT22;26723;57.478;12.066;2022-10-20T11:23:22;13.60;99.90
40996;DHT22;26723;57.478;12.066;2022-10-20T11:26:36;13.40;99.90
40996;DHT22;26723;57.478;12.066;2022-10-20T11:29:48;13.10;99.90
40996;DHT22;26723;57.478;12.066;2022-10-20T11:33:02;13.20;99.90
40996;DHT22;26723;57.478;12.066;2022-10-20T11:36:15;13.30;99.90
40996;DHT22;26723;57.478;12.066;2022-10-20T11:39:32;13.40;99.90
40996;DHT22;26723;57.478;12.066;2022-10-20T11:42:43;13.40;99.90
40996;DHT22;26723;57.478;12.066;2022-10-20T11:46:00;13.30;99.90
40996;DHT22;26723;57.478;12.066;2022-10-20T11:49:10;13.20;99.90
40996;DHT22;26723;57.478;12.066;2022-10-20T11:53:00;13.00;99.90
40996;DHT22;26723;57.478;12.066;2022-10-20T12:00:09;12.80;99.90
40996;DHT22;26723;57.478;12.066;2022-10-20T12:03:40;12.60;99.90
40996;DHT22;26723;57.478;12.066;2022-10-20T12:07:11;12.40;99.90
40996;DHT22;26723;57.478;12.066;2022-10-20T12:10:37;12.20;99.90
40996;DHT22;26723;57.478;12.066;2022-10-20T12:13:56;12.00;99.90
40996;DHT22;26723;57.478;12.066;2022-10-20T12:17:28;12.00;99.90
40996;DHT22;26723;57.478;12.066;2022-10-20T12:20:56;11.90;99.90
40996;DHT22;26723;57.478;12.066;2022-10-20T12:24:33;11.90;99.90
40996;DHT22;26723;57.478;12.066;2022-10-20T12:27:44;11.80;99.90
40996;DHT22;26723;57.478;12.066;2022-10-20T12:30:54;11.90;99.90
40996;DHT22;26723;57.478;12.066;2022-10-20T12:34:03;11.80;99.90
40996;DHT22;26723;57.478;12.066;2022-10-20T12:37:16;11.70;99.90
40996;DHT22;26723;57.478;12.066;2022-10-20T12:40:29;11.80;99.90
40996;DHT22;26723;57.478;12.066;2022-10-20T12:43:50;11.90;99.90
40996;DHT22;26723;57.478;12.066;2022-10-20T12:47:04;11.60;99.90
40996;DHT22;26723;57.478;12.066;2022-10-20T12:50:24;11.70;99.90
40996;DHT22;26723;57.478;12.066;2022-10-20T12:53:36;11.70;99.90
40996;DHT22;26723;57.478;12.066;2022-10-20T12:56:45;11.70;99.90
40996;DHT22;26723;57.478;12.066;2022-10-20T12:59:55;11.80;99.90
40996;DHT22;26723;57.478;12.066;2022-10-20T13:06:57;11.70;99.90
40996;DHT22;26723;57.478;12.066;2022-10-20T13:10:27;11.70;99.90
40996;DHT22;26723;57.478;12.066;2022-10-20T13:13:50;11.60;99.90
40996;DHT22;26723;57.478;12.066;2022-10-20T13:17:18;11.30;99.90
40996;DHT22;26723;57.478;12.066;2022-10-20T13:20:35;11.40;99.90
40996;DHT22;26723;57.478;12.066;2022-10-20T13:23:52;11.40;99.90
40996;DHT22;26723;57.478;12.066;2022-10-20T13:27:02;11.50;99.90
40996;DHT22;26723;57.478;12.066;2022-10-20T13:30:20;11.50;99.90
40996;DHT22;26723;57.478;12.066;2022-10-20T13:33:32;11.50;99.90
40996;DHT22;26723;57.478;12.066;2022-10-20T13:37:12;11.40;99.90
40996;DHT22;26723;57.478;12.066;2022-10-20T13:40:39;11.40;99.90
40996;DHT22;26723;57.478;12.066;2022-10-20T13:43:57;11.50;99.90
40996;DHT22;26723;57.478;12.066;2022-10-20T13:50:56;11.20;99.90
40996;DHT22;26723;57.478;12.066;2022-10-20T13:54:06;11.20;99.90
40996;DHT22;26723;57.478;12.066;2022-10-20T13:57:25;11.20;99.90
40996;DHT22;26723;57.478;12.066;2022-10-20T14:00:34;11.20;99.90
40996;DHT22;26723;57.478;12.066;2022-10-20T14:03:44;11.30;99.90
40996;DHT22;26723;57.478;12.066;2022-10-20T14:06:53;11.20;99.90
40996;DHT22;26723;57.478;12.066;2022-10-20T14:10:02;11.00;99.90
40996;DHT22;26723;57.478;12.066;2022-10-20T14:13:15;10.90;99.90
40996;DHT22;26723;57.478;12.066;2022-10-20T14:16:26;11.00;99.90
40996;DHT22;26723;57.478;12.066;2022-10-20T14:19:36;11.00;99.90
40996;DHT22;26723;57.478;12.066;2022-10-20T14:22:48;10.90;99.90
40996;DHT22;26723;57.478;12.066;2022-10-20T14:26:00;10.90;99.90
40996;DHT22;26723;57.478;12.066;2022-10-20T14:29:11;10.90;99.90
40996;DHT22;26723;57.478;12.066;2022-10-20T14:32:23;10.80;99.90
40996;DHT22;26723;57.478;12.066;2022-10-20T14:35:39;10.70;99.90
40996;DHT22;26723;57.478;12.066;2022-10-20T14:38:50;10.60;99.90
40996;DHT22;26723;57.478;12.066;2022-10-20T14:42:02;10.60;99.90
40996;DHT22;26723;57.478;12.066;2022-10-20T14:45:19;10.60;99.90
40996;DHT22;26723;57.478;12.066;2022-10-20T14:48:32;10.50;99.90
40996;DHT22;26723;57.478;12.066;2022-10-20T14:51:53;10.40;99.90
40996;DHT22;26723;57.478;12.066;2022-10-20T14:55:02;10.30;99.90
40996;DHT22;26723;57.478;12.066;2022-10-20T14:58:30;10.30;99.90
40996;DHT22;26723;57.478;12.066;2022-10-20T15:01:40;10.20;99.90
40996;DHT22;26723;57.478;12.066;2022-10-20T15:05:19;10.10;99.90
40996;DHT22;26723;57.478;12.066;2022-10-20T15:08:28;10.00;99.90
40996;DHT22;26723;57.478;12.066;2022-10-20T15:11:38;10.00;99.90
40996;DHT22;26723;57.478;12.066;2022-10-20T15:14:48;9.90;99.90
40996;DHT22;26723;57.478;12.066;2022-10-20T15:18:11;9.90;99.90
40996;DHT22;26723;57.478;12.066;2022-10-20T15:21:20;9.80;99.90
40996;DHT22;26723;57.478;12.066;2022-10-20T15:24:28;9.70;99.90
40996;DHT22;26723;57.478;12.066;2022-10-20T15:27:39;9.60;99.90
40996;DHT22;26723;57.478;12.066;2022-10-20T15:30:48;9.60;99.90
40996;DHT22;26723;57.478;12.066;2022-10-20T15:33:58;9.50;99.90
40996;DHT22;26723;57.478;12.066;2022-10-20T15:37:06;9.50;99.90
40996;DHT22;26723;57.478;12.066;2022-10-20T15:40:14;9.40;99.90
40996;DHT22;26723;57.478;12.066;2022-10-20T15:43:24;9.40;99.90
40996;DHT22;26723;57.478;12.066;2022-10-20T15:46:32;9.30;99.90
40996;DHT22;26723;57.478;12.066;2022-10-20T15:49:42;9.30;99.90
40996;DHT22;26723;57.478;12.066;2022-10-20T15:52:50;9.30;99.90
40996;DHT22;26723;57.478;12.066;2022-10-20T15:56:00;9.20;99.90
40996;DHT22;26723;57.478;12.066;2022-10-20T15:59:08;9.10;99.90
40996;DHT22;26723;57.478;12.066;2022-10-20T16:02:17;9.10;99.90
40996;DHT22;26723;57.478;12.066;2022-10-20T16:05:27;9.00;99.90
40996;DHT22;26723;57.478;12.066;2022-10-20T16:08:35;9.00;99.90
40996;DHT22;26723;57.478;12.066;2022-10-20T16:11:47;8.90;99.90
40996;DHT22;26723;57.478;12.066;2022-10-20T16:14:56;8.80;99.90
40996;DHT22;26723;57.478;12.066;2022-10-20T16:18:04;8.70;99.90
40996;DHT22;26723;57.478;12.066;2022-10-20T16:21:17;8.70;99.90
40996;DHT22;26723;57.478;12.066;2022-10-20T16:24:25;8.70;99.90
40996;DHT22;26723;57.478;12.066;2022-10-20T16:27:34;8.60;99.90
40996;DHT22;26723;57.478;12.066;2022-10-20T16:30:42;8.60;99.90
40996;DHT22;26723;57.478;12.066;2022-10-20T16:33:51;8.50;99.90
40996;DHT22;26723;57.478;12.066;2022-10-20T16:37:00;8.50;99.90
40996;DHT22;26723;57.478;12.066;2022-10-20T16:40:09;8.50;99.90
40996;DHT22;26723;57.478;12.066;2022-10-20T16:43:17;8.40;99.90
40996;DHT22;26723;57.478;12.066;2022-10-20T16:46:26;8.30;99.90
40996;DHT22;26723;57.478;12.066;2022-10-20T16:49:34;8.40;99.90
40996;DHT22;26723;57.478;12.066;2022-10-20T16:52:44;8.30;99.90
40996;DHT22;26723;57.478;12.066;2022-10-20T16:55:53;8.20;99.90
40996;DHT22;26723;57.478;12.066;2022-10-20T16:59:02;8.20;99.90
40996;DHT22;26723;57.478;12.066;2022-10-20T17:02:11;8.20;99.90
40996;DHT22;26723;57.478;12.066;2022-10-20T17:05:19;8.20;99.90
40996;DHT22;26723;57.478;12.066;2022-10-20T17:08:35;8.20;99.90
40996;DHT22;26723;57.478;12.066;2022-10-20T17:11:44;8.20;99.90
40996;DHT22;26723;57.478;12.066;2022-10-20T17:14:52;8.20;99.90
40996;DHT22;26723;57.478;12.066;2022-10-20T17:18:01;8.10;99.90
40996;DHT22;26723;57.478;12.066;2022-10-20T17:21:10;8.10;99.90
40996;DHT22;26723;57.478;12.066;2022-10-20T17:24:20;8.10;99.90
40996;DHT22;26723;57.478;12.066;2022-10-20T17:27:28;8.10;99.90
40996;DHT22;26723;57.478;12.066;2022-10-20T17:30:39;8.00;99.90
40996;DHT22;26723;57.478;12.066;2022-10-20T17:33:48;8.00;99.90
40996;DHT22;26723;57.478;12.066;2022-10-20T17:36:57;8.00;99.90
40996;DHT22;26723;57.478;12.066;2022-10-20T17:40:08;8.00;99.90
40996;DHT22;26723;57.478;12.066;2022-10-20T17:43:17;8.00;99.90
40996;DHT22;26723;57.478;12.066;2022-10-20T17:46:25;7.90;99.90
40996;DHT22;26723;57.478;12.066;2022-10-20T17:49:34;7.90;99.90
40996;DHT22;26723;57.478;12.066;2022-10-20T17:52:42;7.90;99.90
40996;DHT22;26723;57.478;12.066;2022-10-20T17:55:52;7.90;99.90
40996;DHT22;26723;57.478;12.066;2022-10-20T17:59:01;7.80;99.90
40996;DHT22;26723;57.478;12.066;2022-10-20T18:02:10;7.90;99.90
40996;DHT22;26723;57.478;12.066;2022-10-20T18:05:18;7.90;99.90
40996;DHT22;26723;57.478;12.066;2022-10-20T18:08:27;7.80;99.90
40996;DHT22;26723;57.478;12.066;2022-10-20T18:11:39;7.80;99.90
40996;DHT22;26723;57.478;12.066;2022-10-20T18:14:47;7.80;99.90
40996;DHT22;26723;57.478;12.066;2022-10-20T18:17:55;7.70;99.90
40996;DHT22;26723;57.478;12.066;2022-10-20T18:21:05;7.70;99.90
40996;DHT22;26723;57.478;12.066;2022-10-20T18:24:15;7.70;99.90
40996;DHT22;26723;57.478;12.066;2022-10-20T18:27:25;7.70;99.90
40996;DHT22;26723;57.478;12.066;2022-10-20T18:30:36;7.60;99.90
40996;DHT22;26723;57.478;12.066;2022-10-20T18:33:45;7.60;99.90
40996;DHT22;26723;57.478;12.066;2022-10-20T18:36:53;7.60;99.90
40996;DHT22;26723;57.478;12.066;2022-10-20T18:40:02;7.60;99.90
40996;DHT22;26723;57.478;12.066;2022-10-20T18:43:12;7.50;99.90
40996;DHT22;26723;57.478;12.066;2022-10-20T18:46:20;7.50;99.90
40996;DHT22;26723;57.478;12.066;2022-10-20T18:49:29;7.50;99.90
40996;DHT22;26723;57.478;12.066;2022-10-20T18:52:37;7.50;99.90
40996;DHT22;26723;57.478;12.066;2022-10-20T18:55:45;7.50;99.90
40996;DHT22;26723;57.478;12.066;2022-10-20T18:58:57;7.50;99.90
40996;DHT22;26723;57.478;12.066;2022-10-20T19:02:05;7.50;99.90
40996;DHT22;26723;57.478;12.066;2022-10-20T19:05:13;7.50;99.90
40996;DHT22;26723;57.478;12.066;2022-10-20T19:08:22;7.40;99.90
40996;DHT22;26723;57.478;12.066;2022-10-20T19:11:33;7.40;99.90
40996;DHT22;26723;57.478;12.066;2022-10-20T19:14:43;7.40;99.90
40996;DHT22;26723;57.478;12.066;2022-10-20T19:17:51;7.40;99.90
40996;DHT22;26723;57.478;12.066;2022-10-20T19:21:05;7.30;99.90
40996;DHT22;26723;57.478;12.066;2022-10-20T19:24:17;7.30;99.90
40996;DHT22;26723;57.478;12.066;2022-10-20T19:27:26;7.30;99.90
40996;DHT22;26723;57.478;12.066;2022-10-20T19:30:35;7.30;99.90
40996;DHT22;26723;57.478;12.066;2022-10-20T19:33:44;7.20;99.90
40996;DHT22;26723;57.478;12.066;2022-10-20T19:36:53;7.20;99.90
40996;DHT22;26723;57.478;12.066;2022-10-20T19:40:02;7.20;99.90
40996;DHT22;26723;57.478;12.066;2022-10-20T19:43:11;7.20;99.90
40996;DHT22;26723;57.478;12.066;2022-10-20T19:46:24;7.20;99.90
40996;DHT22;26723;57.478;12.066;2022-10-20T19:49:32;7.30;99.90
40996;DHT22;26723;57.478;12.066;2022-10-20T19:52:41;7.30;99.90
40996;DHT22;26723;57.478;12.066;2022-10-20T19:55:49;7.30;99.90
40996;DHT22;26723;57.478;12.066;2022-10-20T19:58:59;7.30;99.90
40996;DHT22;26723;57.478;12.066;2022-10-20T20:02:11;7.30;99.90
40996;DHT22;26723;57.478;12.066;2022-10-20T20:05:19;7.30;99.90
40996;DHT22;26723;57.478;12.066;2022-10-20T20:08:27;7.30;99.90
40996;DHT22;26723;57.478;12.066;2022-10-20T20:11:37;7.30;99.90
40996;DHT22;26723;57.478;12.066;2022-10-20T20:14:46;7.30;99.90
40996;DHT22;26723;57.478;12.066;2022-10-20T20:17:56;7.30;99.90
40996;DHT22;26723;57.478;12.066;2022-10-20T20:21:05;7.20;99.90